Time;durP1;ratioP1;P1;durP2;ratioP2;P2;SDS_P1;SDS_P2;PMS_P1;PMS_P2;Temp;Humidity;BMP_temperature;BMP_pressure;BME280_temperature;BME280_humidity;BME280_pressure;Samples;Min_cycle;Max_cycle;Signal;HPM_P1;HPM_P2
2023/03/23 00:03:31;;;;;;;26.30;18.10;;;;;;;11.05;71.03;98041.02;435197;1257;108187;-41
2023/03/23 00:13:38;;;;;;;23.60;15.90;;;;;;;10.95;71.15;98029.63;435318;1256;98065;-40
2023/03/23 00:23:44;;;;;;;21.40;16.50;;;;;;;10.85;71.11;98029.23;435240;1262;108030;-42
2023/03/23 00:33:50;;;;;;;22.40;16.80;;;;;;;10.82;71.23;98022.69;435102;1256;98557;-41
2023/03/23 00:43:56;;;;;;;25.30;16.20;;;;;;;10.86;71.23;98019.34;435259;1262;110419;-41
2023/03/23 00:54:01;;;;;;;25.30;15.50;;;;;;;10.82;71.37;98014.33;435186;1258;106908;-42
2023/03/23 01:04:08;;;;;;;22.90;15.80;;;;;;;10.74;71.45;98013.77;435378;1254;97947;-40
2023/03/23 01:14:18;;;;;;;20.90;14.40;;;;;;;10.65;71.47;98010.47;435302;1256;107839;-41
2023/03/23 01:24:24;;;;;;;22.60;14.90;;;;;;;10.61;71.54;98009.14;435040;1252;99528;-41
2023/03/23 01:34:31;;;;;;;21.10;14.30;;;;;;;10.64;71.61;98008.34;435196;1265;111019;-41
2023/03/23 01:45:11;;;;;;;27.20;15.10;;;;;;;10.60;71.64;98001.95;435359;1254;107382;-40
2023/03/23 01:55:18;;;;;;;21.00;15.10;;;;;;;10.48;71.70;98002.16;435256;1256;98381;-41
2023/03/23 02:05:22;;;;;;;23.90;14.00;;;;;;;10.32;71.76;98002.52;435311;1257;107711;-41
2023/03/23 02:15:27;;;;;;;26.30;12.80;;;;;;;10.19;71.75;97996.35;435257;1256;99221;-41
2023/03/23 02:25:44;;;;;;;17.80;12.70;;;;;;;10.14;71.85;97989.48;435082;1256;114184;-41
2023/03/23 02:35:47;;;;;;;21.20;14.30;;;;;;;10.07;71.95;97983.85;435185;1258;108438;-41
2023/03/23 02:45:55;;;;;;;20.30;14.00;;;;;;;9.92;72.17;97997.89;436096;1251;98012;-42
2023/03/23 02:56:04;;;;;;;23.00;13.70;;;;;;;9.75;72.36;97999.89;435177;1251;107849;-40
2023/03/23 03:06:20;;;;;;;20.10;13.20;;;;;;;9.63;72.42;97991.76;435265;1258;99226;-41
2023/03/23 03:16:24;;;;;;;21.40;13.60;;;;;;;9.60;72.59;97974.40;435214;1251;111120;-40
2023/03/23 03:26:30;;;;;;;21.30;13.30;;;;;;;9.59;72.79;97970.53;435226;1251;107087;-41
2023/03/23 03:36:40;;;;;;;18.40;13.50;;;;;;;9.49;72.92;97966.09;434887;1257;555909;-41
2023/03/23 03:46:46;;;;;;;20.10;13.40;;;;;;;9.30;72.97;97974.68;435162;1257;108643;-41
2023/03/23 03:56:57;;;;;;;21.00;14.10;;;;;;;9.13;73.22;97965.77;435127;1256;99191;-40
2023/03/23 04:07:05;;;;;;;20.40;12.70;;;;;;;9.10;73.34;97971.84;435223;1251;112048;-41
2023/03/23 04:17:11;;;;;;;17.20;11.30;;;;;;;9.22;73.59;97959.65;435193;1256;107390;-40
2023/03/23 04:27:17;;;;;;;17.50;12.00;;;;;;;9.37;73.74;97952.00;435300;1256;99247;-41
2023/03/23 04:37:25;;;;;;;19.00;13.70;;;;;;;9.44;73.75;97950.48;435274;1256;107492;-40
2023/03/23 04:47:39;;;;;;;25.80;13.90;;;;;;;9.43;73.79;97959.90;435384;1251;98824;-41
2023/03/23 05:07:50;;;;;;;21.40;11.90;;;;;;;9.35;73.74;97950.55;435211;1251;108069;-41
2023/03/23 05:28:01;;;;;;;22.30;11.00;;;;;;;9.73;73.84;97951.17;435280;1256;108723;-40
2023/03/23 05:38:08;;;;;;;20.00;13.00;;;;;;;9.85;73.87;97949.23;435220;1251;99186;-42
2023/03/23 05:48:14;;;;;;;27.40;13.30;;;;;;;9.96;73.75;97951.24;435228;1251;112760;-40
2023/03/23 05:58:20;;;;;;;22.80;12.50;;;;;;;10.13;73.68;97951.44;435125;1256;108154;-42
2023/03/23 06:08:26;;;;;;;21.00;10.90;;;;;;;10.28;73.56;97953.06;435241;1256;99250;-42
2023/03/23 06:28:38;;;;;;;13.50;9.70;;;;;;;10.52;73.29;97952.73;435387;1251;99135;-41
2023/03/23 06:38:44;;;;;;;19.40;10.30;;;;;;;10.67;72.94;97944.62;435359;1256;112150;-41
2023/03/23 06:58:55;;;;;;;18.20;9.50;;;;;;;11.13;72.60;97961.42;435490;1256;99221;-41
2023/03/23 07:09:03;;;;;;;13.80;9.70;;;;;;;11.26;72.27;97963.77;435150;1256;107573;-42
2023/03/23 07:19:09;;;;;;;15.40;9.50;;;;;;;11.30;72.18;97970.05;435526;1255;99211;-41
2023/03/23 07:29:18;;;;;;;12.80;9.50;;;;;;;11.48;71.86;97972.13;435129;1253;111700;-41
2023/03/23 07:49:27;;;;;;;16.60;9.70;;;;;;;12.54;71.21;97973.58;435222;1253;99147;-40
2023/03/23 07:59:33;;;;;;;14.30;8.90;;;;;;;13.17;70.46;97962.04;435550;1253;107689;-40
2023/03/23 08:09:39;;;;;;;15.80;9.00;;;;;;;13.82;69.92;97951.05;434381;1253;99263;-41
2023/03/23 08:19:45;;;;;;;11.90;7.70;;;;;;;15.05;69.54;97948.27;434414;1253;112994;-40
2023/03/23 08:29:50;;;;;;;19.10;7.40;;;;;;;16.72;67.29;97927.33;434300;1257;107648;-40
2023/03/23 08:39:57;;;;;;;15.80;7.00;;;;;;;16.76;64.35;97926.14;434611;1254;97989;-41
2023/03/23 08:50:03;;;;;;;12.10;6.10;;;;;;;16.54;63.62;97929.89;434394;1258;106920;-41
2023/03/23 09:10:19;;;;;;;11.80;7.10;;;;;;;17.23;59.40;97914.39;434361;1257;111929;-41
2023/03/23 09:20:26;;;;;;;11.50;6.30;;;;;;;17.58;58.42;97910.38;434197;1258;108436;-40
2023/03/23 09:40:48;;;;;;;12.80;6.80;;;;;;;18.67;55.37;97895.43;434350;1254;106759;-41
2023/03/23 09:50:57;;;;;;;8.50;5.90;;;;;;;19.09;55.75;97891.59;434544;1257;97989;-41
2023/03/23 10:01:08;;;;;;;10.50;6.10;;;;;;;19.32;53.88;97894.30;434627;1256;112427;-42
2023/03/23 10:21:23;;;;;;;30.90;15.50;;;;;;;19.34;52.48;97864.21;434755;1253;99067;-42
2023/03/23 10:31:34;;;;;;;13.70;7.40;;;;;;;18.98;51.46;97868.69;434617;1253;108978;-41
2023/03/23 10:51:49;;;;;;;9.50;4.60;;;;;;;18.68;50.89;97876.83;434703;1253;110967;-40
2023/03/23 11:01:59;;;;;;;5.40;3.50;;;;;;;18.55;49.49;97879.83;434724;1253;107505;-40
2023/03/23 11:12:17;;;;;;;8.00;4.80;;;;;;;18.38;50.13;97876.73;434711;1253;99324;-41
2023/03/23 11:22:21;;;;;;;9.90;5.10;;;;;;;18.36;49.98;97883.74;434541;1257;108727;-42
2023/03/23 11:32:27;;;;;;;4.20;3.50;;;;;;;18.22;49.79;97887.61;434792;1253;98846;-41
2023/03/23 11:42:35;;;;;;;8.90;4.20;;;;;;;18.11;49.58;97880.52;434627;1253;111563;-41
2023/03/23 11:52:43;;;;;;;4.90;3.20;;;;;;;18.19;50.34;97888.77;434738;1253;108040;-41
2023/03/23 12:23:47;;;;;;;3.60;3.30;;;;;;;18.37;50.00;97890.68;434866;1255;98011;-41
2023/03/23 12:33:56;;;;;;;7.80;4.10;;;;;;;18.30;50.22;97892.40;434876;1253;111005;-41
2023/03/23 12:43:59;;;;;;;8.00;3.70;;;;;;;17.99;49.60;97887.33;434948;1253;106489;-42
2023/03/23 13:04:06;;;;;;;21.50;12.10;;;;;;;17.87;50.49;97879.40;434937;1253;107455;-41
2023/03/23 13:14:16;;;;;;;5.40;4.10;;;;;;;17.90;50.02;97873.36;435080;1254;99324;-41
2023/03/23 13:34:35;;;;;;;6.50;3.10;;;;;;;17.77;50.48;97867.89;435091;1253;108472;-43
2023/03/23 13:44:43;;;;;;;;;;;;;;;17.75;50.97;97869.36;435049;1257;98963;-40
2023/03/23 13:54:50;;;;;;;9.00;4.50;;;;;;;17.85;50.88;97874.74;435007;1259;108192;-41
2023/03/23 14:04:57;;;;;;;4.00;3.00;;;;;;;17.61;51.14;97882.09;434956;1254;99097;-41
2023/03/23 14:15:06;;;;;;;4.30;2.80;;;;;;;17.29;51.14;97890.83;435050;1253;112970;-41
2023/03/23 14:25:14;;;;;;;3.60;2.60;;;;;;;17.16;51.81;97891.45;434990;1257;107732;-40
2023/03/23 14:35:18;;;;;;;3.00;1.80;;;;;;;16.99;51.79;97892.23;434911;1253;99224;-40
2023/03/23 14:45:26;;;;;;;5.00;1.80;;;;;;;16.90;51.55;97887.88;434948;1257;107313;-41
2023/03/23 15:15:43;;;;;;;5.20;2.70;;;;;;;16.69;52.32;97896.80;434931;1253;108800;-41
2023/03/23 15:25:51;;;;;;;3.40;2.00;;;;;;;16.67;52.22;97887.16;434946;1253;99246;-40
2023/03/23 15:35:59;;;;;;;3.90;2.30;;;;;;;16.57;52.37;97885.02;434659;1259;337975;-40
2023/03/23 15:46:22;;;;;;;10.90;4.20;;;;;;;16.41;52.58;97888.69;434905;1253;100390;-41
2023/03/23 15:56:29;;;;;;;7.10;2.40;;;;;;;16.23;52.79;97898.70;435020;1253;112147;-41
2023/03/23 16:06:36;;;;;;;3.00;2.30;;;;;;;16.09;53.29;97904.67;434933;1253;108054;-42
2023/03/23 16:16:44;;;;;;;7.30;4.20;;;;;;;15.92;53.39;97906.02;434986;1258;98704;-42
2023/03/23 16:26:56;;;;;;;7.20;3.20;;;;;;;15.80;53.88;97906.17;434873;1257;108127;-41
2023/03/23 16:37:05;;;;;;;3.80;2.80;;;;;;;15.69;54.07;97900.16;434900;1253;99223;-41
2023/03/23 16:47:13;;;;;;;34.70;9.40;;;;;;;15.50;54.47;97897.67;434852;1253;111572;-41
2023/03/23 16:57:21;;;;;;;9.10;6.30;;;;;;;15.24;54.80;97899.80;434753;1259;108186;-41
2023/03/23 17:07:28;;;;;;;21.10;10.50;;;;;;;15.03;55.14;97908.88;434658;1253;99201;-41
2023/03/23 17:17:35;;;;;;;84.20;58.50;;;;;;;14.83;55.54;97908.40;434891;1267;108283;-41
2023/03/23 17:27:42;;;;;;;36.90;20.90;;;;;;;14.62;55.84;97894.95;434391;1256;99391;-41
2023/03/23 17:37:50;;;;;;;43.20;25.40;;;;;;;14.41;56.17;97906.39;434452;1257;112004;-44
2023/03/23 17:47:57;;;;;;;61.00;36.80;;;;;;;14.25;56.43;97920.37;434560;1266;108574;-41
2023/03/23 17:58:05;;;;;;;127.70;83.10;;;;;;;14.07;57.00;97924.34;434731;1267;99243;-40
2023/03/23 18:08:12;;;;;;;56.40;31.60;;;;;;;13.92;57.33;97917.35;434633;1266;107745;-41
2023/03/23 18:18:19;;;;;;;98.50;59.70;;;;;;;13.76;57.86;97931.62;434812;1255;98084;-41
2023/03/23 18:28:27;;;;;;;83.40;49.70;;;;;;;13.66;58.30;97942.49;434660;1256;112424;-42
2023/03/23 18:38:35;;;;;;;77.20;44.50;;;;;;;13.63;58.55;97944.42;434544;1266;108513;-42
2023/03/23 18:48:44;;;;;;;95.60;47.50;;;;;;;13.61;58.81;97953.71;434603;1257;98012;-42
2023/03/23 18:58:53;;;;;;;123.40;61.80;;;;;;;13.55;59.14;97967.42;434536;1257;107404;-41
2023/03/23 19:09:00;;;;;;;111.90;54.20;;;;;;;13.49;59.47;97961.04;434549;1257;99035;-41
2023/03/23 19:29:18;;;;;;;94.70;52.10;;;;;;;13.38;60.10;97969.80;434652;1257;107106;-41
2023/03/23 19:39:33;;;;;;;74.60;42.60;;;;;;;13.35;60.41;97968.14;434563;1256;99257;-39
2023/03/23 19:49:40;;;;;;;54.60;30.60;;;;;;;13.35;60.76;97975.41;434691;1258;107565;-40
2023/03/23 19:59:47;;;;;;;44.70;25.20;;;;;;;13.41;60.96;97977.39;434439;1257;99455;-41
2023/03/23 20:09:54;;;;;;;42.00;24.50;;;;;;;13.52;61.15;97990.20;434448;1266;111932;-40
2023/03/23 20:20:04;;;;;;;38.20;23.30;;;;;;;13.59;61.54;97994.94;434481;1253;107521;-40
2023/03/23 20:30:10;;;;;;;33.40;19.90;;;;;;;13.58;61.65;97998.66;434479;1255;99215;-41
2023/03/23 20:40:17;;;;;;;46.90;31.30;;;;;;;13.51;61.81;97986.97;434525;1258;107327;-41
2023/03/23 20:50:24;;;;;;;50.70;31.70;;;;;;;13.39;61.96;97980.73;434677;1257;98469;-42
2023/03/23 21:00:31;;;;;;;70.40;46.00;;;;;;;13.27;62.33;97983.32;434610;1257;111913;-41
2023/03/23 21:20:45;;;;;;;32.00;19.90;;;;;;;13.26;62.74;97999.35;434565;1259;99746;-41
2023/03/23 21:30:54;;;;;;;36.30;20.50;;;;;;;13.35;62.97;98005.75;434336;1266;107954;-41
2023/03/23 21:41:08;;;;;;;32.50;18.50;;;;;;;13.40;63.20;98007.23;434547;1257;99265;-41
2023/03/23 21:51:16;;;;;;;21.40;14.30;;;;;;;13.39;63.37;97999.85;434671;1257;111081;-42
2023/03/23 22:01:24;;;;;;;25.30;14.20;;;;;;;13.35;63.31;98000.86;434598;1257;108574;-41
2023/03/23 22:11:32;;;;;;;18.90;12.10;;;;;;;13.24;63.50;97996.63;434435;1255;99209;-40
2023/03/23 22:21:39;;;;;;;16.50;9.90;;;;;;;13.25;63.45;97989.14;434421;1254;108223;-41
2023/03/23 22:31:47;;;;;;;16.10;9.80;;;;;;;13.24;63.58;97988.83;434423;1257;99238;-41
2023/03/23 22:41:54;;;;;;;15.30;8.30;;;;;;;13.23;63.66;97997.84;434447;1253;112882;-41
2023/03/23 22:52:01;;;;;;;17.10;10.10;;;;;;;13.27;63.76;98009.19;434350;1267;107413;-41
2023/03/23 23:02:08;;;;;;;15.70;8.30;;;;;;;13.35;63.81;98005.84;434304;1257;99579;-41
2023/03/23 23:12:17;;;;;;;15.70;11.50;;;;;;;13.38;63.97;98002.77;434471;1258;108294;-41
2023/03/23 23:22:24;;;;;;;17.90;11.90;;;;;;;13.33;63.95;98005.80;434416;1254;98260;-40
2023/03/23 23:32:32;;;;;;;19.30;11.20;;;;;;;13.23;64.02;98007.02;434292;1257;111392;-43
2023/03/23 23:42:40;;;;;;;19.10;10.80;;;;;;;13.11;64.17;98010.05;434375;1257;106545;-41
2023/03/23 23:52:48;;;;;;;18.90;9.80;;;;;;;13.03;64.30;98015.40;434347;1254;98886;-42
